createdAt,value
2023-01-29T00:00:29.403Z,18.13
2023-01-29T00:02:33.175Z,18.48
2023-01-29T00:04:35.534Z,17.48
2023-01-29T00:06:37.888Z,17.90
2023-01-29T00:08:40.019Z,19.85
2023-01-29T00:10:42.178Z,20.63
2023-01-29T00:12:44.544Z,19.23
2023-01-29T00:14:46.675Z,18.75
2023-01-29T00:16:48.891Z,18.08
2023-01-29T00:18:51.183Z,19.58
2023-01-29T00:20:53.410Z,18.77
2023-01-29T00:22:55.653Z,19.95
2023-01-29T00:24:57.845Z,18.83
2023-01-29T00:26:59.988Z,20.50
2023-01-29T00:29:02.849Z,20.00
2023-01-29T00:31:12.172Z,19.15
2023-01-29T00:33:14.459Z,20.50
2023-01-29T00:35:16.706Z,20.27
2023-01-29T00:37:18.835Z,21.27
2023-01-29T00:39:33.671Z,21.45
2023-01-29T00:42:00.119Z,21.85
2023-01-29T00:44:21.341Z,20.80
2023-01-29T00:46:23.614Z,20.13
2023-01-29T00:48:25.882Z,19.80
2023-01-29T00:50:28.081Z,19.33
2023-01-29T00:52:30.453Z,19.05
2023-01-29T00:54:33.276Z,19.25
2023-01-29T00:56:36.857Z,20.15
2023-01-29T00:58:38.997Z,19.88
2023-01-29T01:00:41.352Z,19.85
2023-01-29T01:03:01.908Z,19.25
2023-01-29T01:05:06.134Z,19.38
2023-01-29T01:07:08.393Z,20.58
2023-01-29T01:09:30.219Z,19.77
2023-01-29T01:11:34.204Z,19.40
2023-01-29T01:13:36.394Z,19.88
2023-01-29T01:15:39.626Z,18.42
2023-01-29T01:17:41.803Z,18.83
2023-01-29T01:19:44.031Z,18.83
2023-01-29T01:21:48.338Z,19.00
2023-01-29T01:23:52.057Z,18.00
2023-01-29T01:25:54.294Z,18.67
2023-01-29T01:27:57.375Z,17.67
2023-01-29T01:30:02.832Z,19.58
2023-01-29T01:32:05.145Z,18.20
2023-01-29T01:34:07.415Z,19.58
2023-01-29T01:36:09.839Z,18.50
2023-01-29T01:38:12.105Z,18.17
2023-01-29T01:40:18.382Z,17.52
2023-01-29T01:42:20.847Z,18.85
2023-01-29T01:44:41.860Z,17.73
2023-01-29T01:46:43.996Z,18.00
2023-01-29T01:48:47.436Z,17.65
2023-01-29T01:50:51.643Z,17.77
2023-01-29T01:52:56.310Z,18.23
2023-01-29T01:54:59.279Z,17.33
2023-01-29T01:57:16.160Z,16.25
2023-01-29T01:59:19.139Z,17.35
2023-01-29T02:01:30.741Z,17.15
2023-01-29T02:03:52.993Z,16.42
2023-01-29T02:06:15.152Z,17.15
2023-01-29T02:08:39.752Z,16.60
2023-01-29T02:10:46.180Z,16.90
2023-01-29T02:12:48.515Z,16.73
2023-01-29T02:14:51.974Z,17.35
2023-01-29T02:16:54.216Z,16.52
2023-01-29T02:18:56.447Z,17.27
2023-01-29T02:21:04.643Z,17.33
2023-01-29T02:23:06.776Z,16.50
2023-01-29T02:25:27.537Z,16.85
2023-01-29T02:27:37.343Z,16.88
2023-01-29T02:29:39.460Z,16.92
2023-01-29T02:31:50.912Z,16.55
2023-01-29T02:34:01.791Z,15.68
2023-01-29T02:36:12.370Z,15.98
2023-01-29T02:38:18.017Z,16.85
2023-01-29T02:40:20.334Z,15.98
2023-01-29T02:42:25.384Z,16.33
2023-01-29T02:44:27.534Z,16.38
2023-01-29T02:46:34.862Z,14.98
2023-01-29T02:48:41.312Z,17.23
2023-01-29T02:50:50.969Z,18.42
2023-01-29T02:52:54.221Z,16.20
2023-01-29T02:55:03.087Z,16.30
2023-01-29T02:57:16.249Z,16.80
2023-01-29T02:59:21.290Z,17.30
2023-01-29T03:01:32.113Z,18.20
2023-01-29T03:03:39.863Z,16.45
2023-01-29T03:05:58.528Z,15.52
2023-01-29T03:08:04.268Z,17.30
2023-01-29T03:10:12.547Z,16.80
2023-01-29T03:12:28.434Z,17.17
2023-01-29T03:14:50.503Z,16.85
2023-01-29T03:16:53.688Z,16.30
2023-01-29T03:18:59.263Z,17.60
2023-01-29T03:21:25.622Z,16.77
2023-01-29T03:23:48.582Z,17.40
2023-01-29T03:26:11.225Z,16.52
2023-01-29T03:28:34.563Z,17.20
2023-01-29T03:30:57.679Z,17.50
2023-01-29T03:33:01.692Z,18.00
2023-01-29T03:35:06.012Z,18.20
2023-01-29T03:37:09.712Z,18.08
2023-01-29T03:39:12.573Z,17.90
2023-01-29T03:41:33.345Z,17.50
2023-01-29T03:43:40.576Z,17.52
2023-01-29T03:45:55.141Z,17.45
2023-01-29T03:48:03.566Z,16.85
2023-01-29T03:50:23.952Z,17.67
2023-01-29T03:52:52.237Z,16.75
2023-01-29T03:55:06.921Z,17.48
2023-01-29T03:57:18.033Z,17.55
2023-01-29T03:59:32.443Z,19.02
2023-01-29T04:01:41.293Z,17.02
2023-01-29T04:03:52.950Z,17.40
2023-01-29T04:05:58.621Z,17.13
2023-01-29T04:08:05.774Z,17.63
2023-01-29T04:10:13.184Z,17.33
2023-01-29T04:12:17.727Z,16.58
2023-01-29T04:14:19.916Z,16.95
2023-01-29T04:16:24.781Z,17.77
2023-01-29T04:18:27.035Z,17.10
2023-01-29T04:20:29.816Z,17.17
2023-01-29T04:22:36.269Z,16.70
2023-01-29T04:24:38.885Z,17.73
2023-01-29T04:26:43.823Z,16.67
2023-01-29T04:28:46.047Z,16.98
2023-01-29T04:30:48.300Z,18.20
2023-01-29T04:33:09.118Z,17.50
2023-01-29T04:35:29.905Z,15.63
2023-01-29T04:37:44.747Z,16.33
2023-01-29T04:39:50.956Z,16.95
2023-01-29T04:42:08.244Z,16.08
2023-01-29T04:44:19.554Z,17.00
2023-01-29T04:46:28.753Z,15.63
2023-01-29T04:48:45.208Z,17.27
2023-01-29T04:50:59.844Z,16.05
2023-01-29T04:53:05.053Z,17.15
2023-01-29T04:55:13.660Z,16.77
2023-01-29T04:57:23.141Z,16.25
2023-01-29T04:59:31.472Z,17.15
2023-01-29T05:01:34.508Z,16.45
2023-01-29T05:03:38.228Z,17.60
2023-01-29T05:05:44.961Z,16.92
2023-01-29T05:07:48.206Z,18.02
2023-01-29T05:09:51.008Z,17.38
2023-01-29T05:11:53.494Z,16.88
2023-01-29T05:16:03.031Z,14.63
2023-01-29T05:18:08.934Z,16.20
2023-01-29T05:20:12.060Z,16.35
2023-01-29T05:22:16.173Z,16.42
2023-01-29T05:24:22.302Z,16.45
2023-01-29T05:26:43.268Z,17.40
2023-01-29T05:28:45.433Z,15.88
2023-01-29T05:30:49.243Z,17.33
2023-01-29T05:32:51.395Z,16.88
2023-01-29T05:34:53.518Z,17.35
2023-01-29T05:36:55.871Z,16.75
2023-01-29T05:38:57.991Z,17.00
2023-01-29T05:41:00.289Z,18.20
2023-01-29T05:43:02.750Z,17.02
2023-01-29T05:45:05.349Z,16.05
2023-01-29T05:47:07.653Z,16.75
2023-01-29T05:49:10.039Z,18.50
2023-01-29T05:51:12.287Z,17.17
2023-01-29T05:53:14.449Z,17.50
2023-01-29T05:55:16.686Z,17.23
2023-01-29T05:57:18.885Z,16.52
2023-01-29T05:59:21.103Z,16.30
2023-01-29T06:01:25.194Z,15.70
2023-01-29T06:03:27.320Z,15.30
2023-01-29T06:05:29.479Z,16.27
2023-01-29T06:07:31.776Z,16.45
2023-01-29T06:09:33.891Z,16.02
2023-01-29T06:11:36.090Z,15.90
2023-01-29T06:13:38.691Z,15.95
2023-01-29T06:15:41.176Z,15.63
2023-01-29T06:19:45.425Z,15.77
2023-01-29T06:21:47.667Z,16.20
2023-01-29T06:23:49.817Z,15.82
2023-01-29T06:25:51.958Z,16.23
2023-01-29T06:27:54.110Z,15.38
2023-01-29T06:29:56.278Z,16.58
2023-01-29T06:31:58.642Z,15.23
2023-01-29T06:34:00.855Z,14.35
2023-01-29T06:36:04.611Z,16.35
2023-01-29T06:38:06.795Z,13.30
2023-01-29T06:40:09.132Z,12.57
2023-01-29T06:42:11.291Z,13.63
2023-01-29T06:44:13.512Z,13.77
2023-01-29T06:46:15.658Z,15.80
2023-01-29T06:48:18.086Z,15.52
2023-01-29T06:50:20.285Z,16.60
2023-01-29T06:52:22.508Z,16.77
2023-01-29T06:54:24.617Z,15.90
2023-01-29T06:56:26.803Z,15.07
2023-01-29T06:58:28.940Z,13.85
2023-01-29T07:00:31.597Z,14.88
2023-01-29T07:02:33.920Z,15.10
2023-01-29T07:04:37.804Z,15.63
2023-01-29T07:06:40.083Z,15.68
2023-01-29T07:08:42.256Z,16.52
2023-01-29T07:10:44.391Z,15.40
2023-01-29T07:12:46.540Z,15.57
2023-01-29T07:14:48.683Z,15.75
2023-01-29T07:16:51.019Z,14.85
2023-01-29T07:18:53.186Z,15.68
2023-01-29T07:20:55.939Z,14.52
2023-01-29T07:22:58.620Z,14.73
2023-01-29T07:25:00.765Z,15.90
2023-01-29T07:27:02.893Z,17.33
2023-01-29T07:29:05.716Z,17.48
2023-01-29T07:31:09.014Z,15.40
2023-01-29T07:33:11.437Z,13.60
2023-01-29T07:35:13.581Z,12.43
2023-01-29T07:37:15.764Z,9.73
2023-01-29T07:39:17.888Z,11.32
2023-01-29T07:41:20.090Z,11.43
2023-01-29T07:43:24.758Z,9.90
2023-01-29T07:45:26.903Z,8.10
2023-01-29T07:47:29.059Z,6.82
2023-01-29T07:49:31.311Z,7.35
2023-01-29T07:51:33.453Z,8.35
2023-01-29T07:53:36.946Z,10.77
2023-01-29T07:55:39.198Z,11.48
2023-01-29T07:57:41.396Z,13.38
2023-01-29T07:59:43.545Z,12.80
2023-01-29T08:01:45.724Z,13.30
2023-01-29T08:03:50.046Z,12.15
2023-01-29T08:05:52.756Z,12.68
2023-01-29T08:08:06.082Z,14.25
2023-01-29T08:10:12.362Z,13.73
2023-01-29T08:12:14.859Z,13.25
2023-01-29T08:16:19.154Z,13.20
2023-01-29T08:18:21.326Z,13.40
2023-01-29T08:20:23.499Z,14.88
2023-01-29T08:22:25.657Z,14.82
2023-01-29T08:24:36.091Z,13.52
2023-01-29T08:26:49.901Z,14.57
2023-01-29T08:28:52.025Z,14.38
2023-01-29T08:30:54.826Z,12.40
2023-01-29T08:32:57.156Z,10.98
2023-01-29T08:34:59.379Z,8.82
2023-01-29T08:37:01.575Z,8.00
2023-01-29T08:39:03.801Z,8.18
2023-01-29T08:41:06.353Z,7.50
2023-01-29T08:45:12.142Z,7.90
2023-01-29T08:49:16.398Z,7.72
2023-01-29T08:51:18.662Z,8.73
2023-01-29T08:53:24.632Z,8.13
2023-01-29T08:55:27.128Z,8.55
2023-01-29T08:57:29.300Z,10.15
2023-01-29T08:59:31.453Z,9.38
2023-01-29T09:01:33.693Z,9.00
2023-01-29T09:03:36.002Z,8.45
2023-01-29T09:05:39.049Z,9.48
2023-01-29T09:07:41.351Z,8.93
2023-01-29T09:09:43.625Z,8.88
2023-01-29T09:11:45.843Z,8.50
2023-01-29T09:13:48.002Z,9.30
2023-01-29T09:15:50.187Z,8.88
2023-01-29T09:17:52.464Z,8.70
2023-01-29T09:19:54.784Z,8.10
2023-01-29T09:21:57.065Z,8.57
2023-01-29T09:23:59.287Z,7.60
2023-01-29T09:26:01.633Z,8.93
2023-01-29T09:28:04.229Z,7.97
2023-01-29T09:30:06.817Z,8.02
2023-01-29T09:34:11.221Z,7.77
2023-01-29T09:36:13.526Z,8.70
2023-01-29T09:38:15.723Z,7.93
2023-01-29T09:40:39.989Z,7.95
2023-01-29T09:42:48.405Z,8.18
2023-01-29T09:44:50.715Z,7.60
2023-01-29T09:46:54.920Z,8.45
2023-01-29T09:49:04.014Z,9.38
2023-01-29T09:51:13.671Z,9.98
2023-01-29T09:53:16.030Z,10.07
2023-01-29T09:55:47.668Z,10.73
2023-01-29T09:57:52.459Z,9.35
2023-01-29T09:59:55.165Z,8.95
2023-01-29T10:02:06.892Z,8.23
2023-01-29T10:04:27.538Z,8.68
2023-01-29T10:06:48.474Z,8.50
2023-01-29T10:09:02.730Z,7.75
2023-01-29T10:11:07.495Z,7.40
2023-01-29T10:13:27.908Z,8.00
2023-01-29T10:15:53.386Z,8.10
2023-01-29T10:18:30.867Z,8.55
2023-01-29T10:20:51.468Z,7.13
2023-01-29T10:23:12.013Z,8.32
2023-01-29T10:25:15.916Z,7.07
2023-01-29T10:27:19.432Z,7.68
2023-01-29T10:29:22.213Z,8.35
2023-01-29T10:31:25.167Z,7.65
2023-01-29T10:33:49.430Z,7.93
2023-01-29T10:35:59.032Z,8.13
2023-01-29T10:38:08.063Z,7.93
2023-01-29T10:40:19.895Z,8.20
2023-01-29T10:42:31.747Z,7.13
2023-01-29T10:44:42.858Z,8.45
2023-01-29T10:46:54.880Z,8.35
2023-01-29T10:49:13.868Z,8.95
2023-01-29T10:51:34.510Z,8.55
2023-01-29T10:53:56.898Z,9.05
2023-01-29T10:56:22.615Z,7.93
2023-01-29T10:58:30.693Z,8.68
2023-01-29T11:00:41.998Z,8.07
2023-01-29T11:02:51.275Z,8.52
2023-01-29T11:04:53.640Z,8.82
2023-01-29T11:06:55.763Z,7.40
2023-01-29T11:09:13.304Z,7.70
2023-01-29T11:11:17.362Z,7.93
2023-01-29T11:13:19.719Z,8.60
2023-01-29T11:15:25.315Z,8.13
2023-01-29T11:17:27.698Z,8.80
2023-01-29T11:19:40.935Z,9.25
2023-01-29T11:21:52.442Z,8.70
2023-01-29T11:24:06.964Z,9.27
2023-01-29T11:26:11.703Z,9.85
2023-01-29T11:28:14.030Z,8.43
2023-01-29T11:30:20.356Z,8.45
2023-01-29T11:32:22.559Z,8.77
2023-01-29T11:34:27.647Z,9.85
2023-01-29T11:36:33.020Z,9.55
2023-01-29T11:38:35.235Z,8.18
2023-01-29T11:40:40.935Z,8.18
2023-01-29T11:42:43.061Z,8.93
2023-01-29T11:44:45.290Z,7.43
2023-01-29T11:46:48.281Z,8.45
2023-01-29T11:48:58.971Z,8.65
2023-01-29T11:51:05.707Z,9.30
2023-01-29T11:53:23.476Z,9.40
2023-01-29T11:55:49.775Z,8.43
2023-01-29T11:57:59.794Z,8.68
2023-01-29T12:00:07.055Z,8.05
2023-01-29T12:02:12.238Z,8.48
2023-01-29T12:04:20.909Z,8.27
2023-01-29T12:06:34.543Z,7.60
2023-01-29T12:08:40.115Z,8.35
2023-01-29T12:10:43.559Z,9.45
2023-01-29T12:12:45.832Z,8.50
2023-01-29T12:14:47.941Z,8.55
2023-01-29T12:17:13.386Z,8.07
2023-01-29T12:19:15.828Z,9.40
2023-01-29T12:21:17.990Z,7.80
2023-01-29T12:23:39.035Z,8.68
2023-01-29T12:25:41.241Z,8.52
2023-01-29T12:27:54.739Z,9.07
2023-01-29T12:30:00.262Z,8.65
2023-01-29T12:32:02.531Z,8.95
2023-01-29T12:34:20.076Z,8.50
2023-01-29T12:36:22.248Z,8.38
2023-01-29T12:38:25.135Z,8.88
2023-01-29T12:40:30.039Z,9.23
2023-01-29T12:42:32.876Z,9.07
2023-01-29T12:44:42.408Z,9.13
2023-01-29T12:46:50.437Z,8.40
2023-01-29T12:48:53.735Z,8.63
2023-01-29T12:50:56.398Z,9.55
2023-01-29T12:53:21.395Z,8.90
2023-01-29T12:55:25.931Z,9.65
2023-01-29T12:57:36.854Z,9.70
2023-01-29T12:59:43.144Z,9.70
2023-01-29T13:01:50.999Z,9.48
2023-01-29T13:03:57.906Z,8.55
2023-01-29T13:06:01.430Z,8.60
2023-01-29T13:08:22.840Z,10.30
2023-01-29T13:10:29.020Z,10.13
2023-01-29T13:12:31.867Z,9.63
2023-01-29T13:14:43.255Z,9.43
2023-01-29T13:16:48.443Z,10.52
2023-01-29T13:18:56.642Z,9.40
2023-01-29T13:21:00.183Z,9.32
2023-01-29T13:23:06.913Z,9.13
2023-01-29T13:25:13.512Z,8.70
2023-01-29T13:27:26.605Z,8.75
2023-01-29T13:29:29.760Z,9.15
2023-01-29T13:31:41.805Z,8.90
2023-01-29T13:33:44.246Z,9.15
2023-01-29T13:35:46.744Z,8.30
2023-01-29T13:39:52.665Z,8.02
2023-01-29T13:41:55.825Z,7.68
2023-01-29T13:43:57.990Z,8.52
2023-01-29T13:46:05.652Z,8.05
2023-01-29T13:48:27.136Z,8.25
2023-01-29T13:50:29.230Z,7.85
2023-01-29T13:52:43.309Z,8.15
2023-01-29T13:54:57.758Z,7.43
2023-01-29T13:57:00.923Z,8.25
2023-01-29T13:59:05.031Z,7.63
2023-01-29T14:01:07.258Z,8.60
2023-01-29T14:03:11.728Z,8.65
2023-01-29T14:05:32.105Z,8.80
2023-01-29T14:07:40.431Z,8.02
2023-01-29T14:09:42.551Z,7.78
2023-01-29T14:11:48.896Z,8.05
2023-01-29T14:13:52.484Z,8.05
2023-01-29T14:15:57.405Z,8.07
2023-01-29T14:18:01.310Z,8.70
2023-01-29T14:20:16.141Z,8.95
2023-01-29T14:22:22.857Z,7.75
2023-01-29T14:24:29.258Z,7.72
2023-01-29T14:26:45.242Z,7.95
2023-01-29T14:29:18.804Z,7.70
2023-01-29T14:31:31.120Z,8.75
2023-01-29T14:33:37.965Z,9.50
2023-01-29T14:35:40.886Z,8.95
2023-01-29T14:37:46.421Z,8.38
2023-01-29T14:39:52.536Z,8.65
2023-01-29T14:41:54.701Z,11.13
2023-01-29T14:44:15.507Z,10.57
2023-01-29T14:46:37.935Z,8.73
2023-01-29T14:48:46.632Z,9.55
2023-01-29T14:50:50.245Z,7.57
2023-01-29T14:52:53.947Z,8.55
2023-01-29T14:54:59.145Z,9.57
2023-01-29T14:57:05.168Z,9.20
2023-01-29T14:59:17.127Z,8.88
2023-01-29T15:01:38.260Z,8.95
2023-01-29T15:03:40.402Z,12.75
2023-01-29T15:05:42.957Z,12.40
2023-01-29T15:09:48.788Z,13.35
2023-01-29T15:11:56.476Z,18.65
2023-01-29T15:14:06.315Z,21.70
2023-01-29T15:16:26.211Z,19.95
2023-01-29T15:18:37.189Z,10.88
2023-01-29T15:20:40.651Z,11.30
2023-01-29T15:22:45.930Z,9.50
2023-01-29T15:24:49.193Z,11.18
2023-01-29T15:26:51.418Z,19.60
2023-01-29T15:29:03.601Z,18.70
2023-01-29T15:31:09.874Z,15.07
2023-01-29T15:33:14.731Z,10.65
2023-01-29T15:35:17.106Z,11.68
2023-01-29T15:39:24.447Z,9.98
2023-01-29T15:41:26.576Z,10.00
2023-01-29T15:43:29.774Z,9.82
2023-01-29T15:45:33.661Z,9.18
2023-01-29T15:47:37.515Z,9.52
2023-01-29T15:49:40.693Z,10.40
2023-01-29T15:51:43.066Z,10.38
2023-01-29T15:53:48.480Z,10.20
2023-01-29T15:55:51.729Z,10.10
2023-01-29T15:57:54.188Z,10.40
2023-01-29T15:59:58.533Z,9.52
2023-01-29T16:02:19.076Z,9.32
2023-01-29T16:04:24.335Z,11.63
2023-01-29T16:06:26.879Z,10.50
2023-01-29T16:10:32.441Z,10.00
2023-01-29T16:12:35.173Z,9.57
2023-01-29T16:14:37.322Z,9.70
2023-01-29T16:16:39.608Z,10.57
2023-01-29T16:18:57.929Z,11.05
2023-01-29T16:21:05.444Z,10.25
2023-01-29T16:23:08.197Z,10.25
2023-01-29T16:25:13.897Z,10.85
2023-01-29T16:27:16.017Z,11.35
2023-01-29T16:29:19.890Z,14.32
2023-01-29T16:31:24.700Z,10.95
2023-01-29T16:33:34.159Z,12.25
2023-01-29T16:35:36.694Z,11.10
2023-01-29T16:39:44.604Z,13.40
2023-01-29T16:41:52.729Z,11.48
2023-01-29T16:43:57.997Z,11.25
2023-01-29T16:46:04.680Z,10.68
2023-01-29T16:48:25.342Z,9.63
2023-01-29T16:50:40.686Z,10.05
2023-01-29T16:53:01.236Z,10.07
2023-01-29T16:55:12.252Z,10.27
2023-01-29T16:57:16.242Z,10.05
2023-01-29T16:59:26.744Z,11.23
2023-01-29T17:01:30.103Z,9.50
2023-01-29T17:03:33.967Z,11.35
2023-01-29T17:05:37.433Z,10.07
2023-01-29T17:07:39.661Z,10.15
2023-01-29T17:09:42.500Z,10.48
2023-01-29T17:11:44.658Z,10.23
2023-01-29T17:13:46.840Z,10.95
2023-01-29T17:15:49.019Z,10.48
2023-01-29T17:17:51.237Z,10.60
2023-01-29T17:19:53.402Z,11.30
2023-01-29T17:21:56.745Z,10.70
2023-01-29T17:23:58.900Z,10.82
2023-01-29T17:26:01.113Z,11.15
2023-01-29T17:28:03.901Z,10.57
2023-01-29T17:30:06.611Z,10.23
2023-01-29T17:32:09.804Z,10.38
2023-01-29T17:34:14.457Z,10.48
2023-01-29T17:36:18.000Z,10.25
2023-01-29T17:38:26.380Z,11.40
2023-01-29T17:40:32.211Z,10.25
2023-01-29T17:42:34.390Z,11.63
2023-01-29T17:44:45.357Z,11.93
2023-01-29T17:46:47.911Z,10.80
2023-01-29T17:50:53.799Z,11.27
2023-01-29T17:52:55.983Z,12.43
2023-01-29T17:54:58.172Z,12.18
2023-01-29T17:57:00.421Z,11.13
2023-01-29T17:59:02.568Z,11.35
2023-01-29T18:01:04.788Z,12.00
2023-01-29T18:03:06.974Z,9.63
2023-01-29T18:05:09.258Z,11.60
2023-01-29T18:07:11.483Z,11.77
2023-01-29T18:09:15.097Z,10.63
2023-01-29T18:11:17.285Z,11.65
2023-01-29T18:13:19.412Z,11.68
2023-01-29T18:15:21.622Z,10.70
2023-01-29T18:17:24.495Z,11.75
2023-01-29T18:19:31.708Z,12.15
2023-01-29T18:21:33.889Z,11.88
2023-01-29T18:23:36.099Z,11.98
2023-01-29T18:25:38.623Z,11.70
2023-01-29T18:29:42.925Z,11.50
2023-01-29T18:31:45.212Z,11.65
2023-01-29T18:33:47.442Z,11.98
2023-01-29T18:35:49.988Z,12.18
2023-01-29T18:39:54.235Z,10.57
2023-01-29T18:41:56.362Z,10.88
2023-01-29T18:43:58.634Z,10.50
2023-01-29T18:46:00.907Z,10.52
2023-01-29T18:48:03.103Z,11.63
2023-01-29T18:50:05.671Z,11.88
2023-01-29T18:52:08.148Z,11.27
2023-01-29T18:56:13.559Z,10.55
2023-01-29T18:58:27.946Z,11.35
2023-01-29T19:00:36.577Z,12.38
2023-01-29T19:02:38.781Z,13.63
2023-01-29T19:04:41.011Z,11.30
2023-01-29T19:06:43.331Z,11.90
2023-01-29T19:08:45.606Z,12.93
2023-01-29T19:10:47.843Z,11.38
2023-01-29T19:12:49.967Z,11.10
2023-01-29T19:14:52.166Z,11.77
2023-01-29T19:16:54.356Z,11.43
2023-01-29T19:18:56.684Z,11.73
2023-01-29T19:20:59.002Z,13.05
2023-01-29T19:23:01.322Z,12.15
2023-01-29T19:25:04.055Z,12.00
2023-01-29T19:27:06.906Z,13.10
2023-01-29T19:29:09.661Z,12.73
2023-01-29T19:31:11.881Z,12.07
2023-01-29T19:33:14.258Z,12.15
2023-01-29T19:35:16.828Z,12.25
2023-01-29T19:37:19.129Z,12.68
2023-01-29T19:39:21.485Z,12.38
2023-01-29T19:41:23.777Z,13.13
2023-01-29T19:43:30.589Z,13.35
2023-01-29T19:45:32.826Z,13.90
2023-01-29T19:47:51.877Z,13.70
2023-01-29T19:51:58.880Z,14.30
2023-01-29T19:54:02.296Z,13.55
2023-01-29T19:56:04.462Z,13.27
2023-01-29T19:58:06.806Z,14.45
2023-01-29T20:00:12.161Z,14.38
2023-01-29T20:02:14.537Z,14.35
2023-01-29T20:06:20.166Z,15.43
2023-01-29T20:08:23.885Z,16.02
2023-01-29T20:10:27.626Z,16.33
2023-01-29T20:12:30.197Z,17.02
2023-01-29T20:14:32.368Z,15.18
2023-01-29T20:16:36.879Z,17.80
2023-01-29T20:18:39.081Z,16.33
2023-01-29T20:20:45.330Z,16.00
2023-01-29T20:22:47.518Z,14.30
2023-01-29T20:24:49.646Z,16.75
2023-01-29T20:26:51.884Z,16.02
2023-01-29T20:28:54.029Z,15.10
2023-01-29T20:30:58.164Z,15.77
2023-01-29T20:33:00.531Z,14.82
2023-01-29T20:35:02.927Z,16.27
2023-01-29T20:39:07.138Z,14.23
2023-01-29T20:41:16.726Z,14.80
2023-01-29T20:43:18.964Z,16.55
2023-01-29T20:45:22.109Z,15.52
2023-01-29T20:47:24.320Z,14.68
2023-01-29T20:49:28.375Z,15.15
2023-01-29T20:51:30.862Z,15.68
2023-01-29T20:55:35.081Z,14.63
2023-01-29T20:57:38.349Z,15.98
2023-01-29T20:59:40.549Z,17.48
2023-01-29T21:01:43.082Z,16.73
2023-01-29T21:05:47.380Z,16.20
2023-01-29T21:07:49.559Z,16.75
2023-01-29T21:09:51.727Z,18.52
2023-01-29T21:11:54.021Z,17.60
2023-01-29T21:13:57.835Z,19.08
2023-01-29T21:16:00.511Z,17.98
2023-01-29T21:18:04.496Z,18.90
2023-01-29T21:20:08.328Z,18.50
2023-01-29T21:22:10.490Z,18.25
2023-01-29T21:24:13.022Z,18.98
2023-01-29T21:26:15.217Z,17.88
2023-01-29T21:28:17.419Z,17.27
2023-01-29T21:30:20.016Z,17.92
2023-01-29T21:32:22.483Z,17.83
2023-01-29T21:34:24.719Z,16.92
2023-01-29T21:36:26.947Z,17.70
2023-01-29T21:38:29.307Z,18.63
2023-01-29T21:40:31.499Z,18.45
2023-01-29T21:42:52.153Z,17.80
2023-01-29T21:44:54.272Z,18.73
2023-01-29T21:46:56.561Z,18.38
2023-01-29T21:48:58.733Z,19.40
2023-01-29T21:51:00.977Z,19.85
2023-01-29T21:53:03.144Z,19.35
2023-01-29T21:55:06.003Z,18.92
2023-01-29T21:57:11.630Z,19.35
2023-01-29T21:59:13.843Z,18.27
2023-01-29T22:01:38.129Z,19.73
2023-01-29T22:03:38.085Z,18.63
2023-01-29T22:05:40.463Z,17.70
2023-01-29T22:07:42.664Z,17.90
2023-01-29T22:09:44.991Z,19.50
2023-01-29T22:13:49.399Z,13.88
2023-01-29T22:15:55.366Z,18.27
2023-01-29T22:17:57.604Z,17.50
2023-01-29T22:19:59.769Z,18.38
2023-01-29T22:22:02.272Z,17.83
2023-01-29T22:24:04.544Z,19.38
2023-01-29T22:26:08.979Z,17.45
2023-01-29T22:28:11.509Z,18.00
2023-01-29T22:32:16.253Z,17.53
2023-01-29T22:34:18.408Z,17.45
2023-01-29T22:36:20.679Z,18.45
2023-01-29T22:38:23.073Z,18.58
2023-01-29T22:40:25.271Z,18.17
2023-01-29T22:42:27.945Z,18.90
2023-01-29T22:44:30.134Z,18.15
2023-01-29T22:46:32.401Z,17.30
2023-01-29T22:48:34.564Z,18.35
2023-01-29T22:50:36.730Z,17.20
2023-01-29T22:52:39.221Z,18.55
2023-01-29T22:56:43.486Z,17.50
2023-01-29T22:58:45.676Z,17.20
2023-01-29T23:00:51.151Z,16.85
2023-01-29T23:02:53.413Z,17.40
2023-01-29T23:04:55.574Z,17.73
2023-01-29T23:06:57.875Z,18.67
2023-01-29T23:09:00.012Z,17.45
2023-01-29T23:11:14.762Z,19.23
2023-01-29T23:13:17.273Z,18.92
2023-01-29T23:15:19.445Z,20.25
2023-01-29T23:17:21.588Z,18.42
2023-01-29T23:19:23.736Z,20.70
2023-01-29T23:21:27.250Z,21.20
2023-01-29T23:23:29.789Z,19.33
2023-01-29T23:25:50.615Z,20.35
2023-01-29T23:27:52.828Z,19.40
2023-01-29T23:29:55.022Z,20.52
2023-01-29T23:31:57.179Z,19.08
2023-01-29T23:33:59.337Z,18.30
2023-01-29T23:36:01.654Z,18.98
2023-01-29T23:38:03.859Z,19.27
2023-01-29T23:40:06.241Z,19.20
2023-01-29T23:42:08.398Z,20.10
2023-01-29T23:44:10.709Z,20.13
2023-01-29T23:46:12.896Z,19.08
2023-01-29T23:48:15.096Z,20.90
2023-01-29T23:50:17.654Z,20.17
2023-01-29T23:52:20.044Z,19.75
2023-01-29T23:54:22.358Z,20.83
2023-01-29T23:56:24.577Z,19.55
2023-01-29T23:58:26.994Z,19.73
